sensor_id;sensor_type;location;lat;lon;timestamp;P1;durP1;ratioP1;P2;durP2;ratioP2
51034;SDS011;37062;52.546;13.230;2023-01-19T00:00:16;13.53;;;8.43;;
51034;SDS011;37062;52.546;13.230;2023-01-19T00:02:46;15.37;;;8.50;;
51034;SDS011;37062;52.546;13.230;2023-01-19T00:05:16;15.80;;;8.27;;
51034;SDS011;37062;52.546;13.230;2023-01-19T00:07:44;16.50;;;9.03;;
51034;SDS011;37062;52.546;13.230;2023-01-19T00:10:12;16.83;;;8.73;;
51034;SDS011;37062;52.546;13.230;2023-01-19T00:12:40;15.63;;;8.37;;
51034;SDS011;37062;52.546;13.230;2023-01-19T00:15:09;14.90;;;8.53;;
51034;SDS011;37062;52.546;13.230;2023-01-19T00:17:38;12.90;;;8.53;;
51034;SDS011;37062;52.546;13.230;2023-01-19T00:20:09;13.50;;;8.13;;
51034;SDS011;37062;52.546;13.230;2023-01-19T00:22:38;12.53;;;8.07;;
51034;SDS011;37062;52.546;13.230;2023-01-19T00:25:07;13.20;;;7.60;;
51034;SDS011;37062;52.546;13.230;2023-01-19T00:27:36;14.30;;;8.30;;
51034;SDS011;37062;52.546;13.230;2023-01-19T00:30:05;14.03;;;7.50;;
51034;SDS011;37062;52.546;13.230;2023-01-19T00:32:34;13.80;;;8.47;;
51034;SDS011;37062;52.546;13.230;2023-01-19T00:35:02;12.33;;;8.70;;
51034;SDS011;37062;52.546;13.230;2023-01-19T00:37:32;15.73;;;8.67;;
51034;SDS011;37062;52.546;13.230;2023-01-19T00:40:00;15.13;;;8.67;;
51034;SDS011;37062;52.546;13.230;2023-01-19T00:42:29;14.77;;;8.00;;
51034;SDS011;37062;52.546;13.230;2023-01-19T00:45:11;10.97;;;8.00;;
51034;SDS011;37062;52.546;13.230;2023-01-19T00:47:40;14.87;;;7.60;;
51034;SDS011;37062;52.546;13.230;2023-01-19T00:50:09;13.90;;;7.97;;
51034;SDS011;37062;52.546;13.230;2023-01-19T00:52:41;10.90;;;7.57;;
51034;SDS011;37062;52.546;13.230;2023-01-19T00:55:10;14.20;;;7.57;;
51034;SDS011;37062;52.546;13.230;2023-01-19T00:57:40;12.53;;;7.50;;
51034;SDS011;37062;52.546;13.230;2023-01-19T01:00:10;16.13;;;7.30;;
51034;SDS011;37062;52.546;13.230;2023-01-19T01:02:40;11.57;;;6.63;;
51034;SDS011;37062;52.546;13.230;2023-01-19T01:05:10;9.57;;;7.30;;
51034;SDS011;37062;52.546;13.230;2023-01-19T01:07:38;11.47;;;7.17;;
51034;SDS011;37062;52.546;13.230;2023-01-19T01:10:11;9.93;;;6.50;;
51034;SDS011;37062;52.546;13.230;2023-01-19T01:12:41;11.13;;;6.90;;
51034;SDS011;37062;52.546;13.230;2023-01-19T01:15:24;11.37;;;7.33;;
51034;SDS011;37062;52.546;13.230;2023-01-19T01:17:53;10.97;;;7.00;;
51034;SDS011;37062;52.546;13.230;2023-01-19T01:20:22;11.00;;;7.10;;
51034;SDS011;37062;52.546;13.230;2023-01-19T01:22:54;15.10;;;7.23;;
51034;SDS011;37062;52.546;13.230;2023-01-19T01:25:25;12.20;;;7.47;;
51034;SDS011;37062;52.546;13.230;2023-01-19T01:27:56;10.23;;;6.70;;
51034;SDS011;37062;52.546;13.230;2023-01-19T01:30:24;11.57;;;7.10;;
51034;SDS011;37062;52.546;13.230;2023-01-19T01:32:52;11.83;;;6.73;;
51034;SDS011;37062;52.546;13.230;2023-01-19T01:35:21;13.77;;;7.17;;
51034;SDS011;37062;52.546;13.230;2023-01-19T01:37:49;11.77;;;6.57;;
51034;SDS011;37062;52.546;13.230;2023-01-19T01:40:19;11.40;;;7.03;;
51034;SDS011;37062;52.546;13.230;2023-01-19T01:42:48;11.33;;;7.27;;
51034;SDS011;37062;52.546;13.230;2023-01-19T01:45:25;11.17;;;7.27;;
51034;SDS011;37062;52.546;13.230;2023-01-19T01:47:57;10.73;;;7.03;;
51034;SDS011;37062;52.546;13.230;2023-01-19T01:50:31;12.90;;;7.13;;
51034;SDS011;37062;52.546;13.230;2023-01-19T01:53:04;12.07;;;8.00;;
51034;SDS011;37062;52.546;13.230;2023-01-19T01:55:38;10.70;;;6.83;;
51034;SDS011;37062;52.546;13.230;2023-01-19T01:58:13;13.73;;;6.97;;
51034;SDS011;37062;52.546;13.230;2023-01-19T02:00:42;14.27;;;7.57;;
51034;SDS011;37062;52.546;13.230;2023-01-19T02:03:28;15.37;;;8.10;;
51034;SDS011;37062;52.546;13.230;2023-01-19T02:05:59;12.07;;;7.37;;
51034;SDS011;37062;52.546;13.230;2023-01-19T02:08:31;12.43;;;7.80;;
51034;SDS011;37062;52.546;13.230;2023-01-19T02:11:22;14.70;;;7.53;;
51034;SDS011;37062;52.546;13.230;2023-01-19T02:14:07;13.20;;;7.13;;
51034;SDS011;37062;52.546;13.230;2023-01-19T02:16:36;14.67;;;8.10;;
51034;SDS011;37062;52.546;13.230;2023-01-19T02:19:04;13.10;;;7.57;;
51034;SDS011;37062;52.546;13.230;2023-01-19T02:21:36;12.00;;;7.10;;
51034;SDS011;37062;52.546;13.230;2023-01-19T02:24:12;13.73;;;7.70;;
51034;SDS011;37062;52.546;13.230;2023-01-19T02:26:41;13.43;;;8.07;;
51034;SDS011;37062;52.546;13.230;2023-01-19T02:29:13;11.47;;;7.60;;
51034;SDS011;37062;52.546;13.230;2023-01-19T02:31:44;13.50;;;7.50;;
51034;SDS011;37062;52.546;13.230;2023-01-19T02:34:13;13.90;;;7.60;;
51034;SDS011;37062;52.546;13.230;2023-01-19T02:36:47;13.83;;;7.57;;
51034;SDS011;37062;52.546;13.230;2023-01-19T02:39:21;14.57;;;8.53;;
51034;SDS011;37062;52.546;13.230;2023-01-19T02:41:54;16.43;;;9.23;;
51034;SDS011;37062;52.546;13.230;2023-01-19T02:44:28;12.93;;;8.30;;
51034;SDS011;37062;52.546;13.230;2023-01-19T02:46:57;15.80;;;8.87;;
51034;SDS011;37062;52.546;13.230;2023-01-19T02:49:27;15.60;;;9.10;;
51034;SDS011;37062;52.546;13.230;2023-01-19T02:51:56;14.97;;;8.80;;
51034;SDS011;37062;52.546;13.230;2023-01-19T02:54:39;12.90;;;8.63;;
51034;SDS011;37062;52.546;13.230;2023-01-19T02:57:23;13.67;;;8.00;;
51034;SDS011;37062;52.546;13.230;2023-01-19T03:00:02;14.10;;;9.03;;
51034;SDS011;37062;52.546;13.230;2023-01-19T03:02:44;15.03;;;8.87;;
51034;SDS011;37062;52.546;13.230;2023-01-19T03:05:24;15.77;;;9.03;;
51034;SDS011;37062;52.546;13.230;2023-01-19T03:08:04;19.20;;;9.03;;
51034;SDS011;37062;52.546;13.230;2023-01-19T03:10:41;15.80;;;9.00;;
51034;SDS011;37062;52.546;13.230;2023-01-19T03:13:17;20.10;;;9.27;;
51034;SDS011;37062;52.546;13.230;2023-01-19T03:15:52;12.90;;;8.83;;
51034;SDS011;37062;52.546;13.230;2023-01-19T03:18:24;16.27;;;9.50;;
51034;SDS011;37062;52.546;13.230;2023-01-19T03:20:54;16.77;;;8.90;;
51034;SDS011;37062;52.546;13.230;2023-01-19T03:23:26;17.20;;;10.00;;
51034;SDS011;37062;52.546;13.230;2023-01-19T03:25:59;13.63;;;9.03;;
51034;SDS011;37062;52.546;13.230;2023-01-19T03:28:30;14.03;;;9.40;;
51034;SDS011;37062;52.546;13.230;2023-01-19T03:31:03;16.67;;;9.50;;
51034;SDS011;37062;52.546;13.230;2023-01-19T03:33:36;16.13;;;9.33;;
51034;SDS011;37062;52.546;13.230;2023-01-19T03:36:07;20.00;;;10.23;;
51034;SDS011;37062;52.546;13.230;2023-01-19T03:38:39;16.87;;;9.70;;
51034;SDS011;37062;52.546;13.230;2023-01-19T03:41:12;17.67;;;10.00;;
51034;SDS011;37062;52.546;13.230;2023-01-19T03:43:43;15.87;;;9.60;;
51034;SDS011;37062;52.546;13.230;2023-01-19T03:46:15;17.27;;;9.73;;
51034;SDS011;37062;52.546;13.230;2023-01-19T03:48:45;17.07;;;10.83;;
51034;SDS011;37062;52.546;13.230;2023-01-19T03:51:15;17.97;;;10.77;;
51034;SDS011;37062;52.546;13.230;2023-01-19T03:53:44;13.93;;;9.60;;
51034;SDS011;37062;52.546;13.230;2023-01-19T03:56:17;16.43;;;10.77;;
51034;SDS011;37062;52.546;13.230;2023-01-19T03:58:47;16.37;;;10.37;;
51034;SDS011;37062;52.546;13.230;2023-01-19T04:01:16;16.53;;;10.43;;
51034;SDS011;37062;52.546;13.230;2023-01-19T04:03:48;18.00;;;11.00;;
51034;SDS011;37062;52.546;13.230;2023-01-19T04:06:17;19.47;;;11.30;;
51034;SDS011;37062;52.546;13.230;2023-01-19T04:08:46;17.73;;;11.07;;
51034;SDS011;37062;52.546;13.230;2023-01-19T04:11:17;17.97;;;11.00;;
51034;SDS011;37062;52.546;13.230;2023-01-19T04:13:45;18.03;;;10.80;;
51034;SDS011;37062;52.546;13.230;2023-01-19T04:16:13;22.63;;;11.90;;
51034;SDS011;37062;52.546;13.230;2023-01-19T04:18:45;16.93;;;12.07;;
51034;SDS011;37062;52.546;13.230;2023-01-19T04:21:14;19.57;;;11.07;;
51034;SDS011;37062;52.546;13.230;2023-01-19T04:23:42;18.27;;;11.60;;
51034;SDS011;37062;52.546;13.230;2023-01-19T04:26:11;20.77;;;11.47;;
51034;SDS011;37062;52.546;13.230;2023-01-19T04:28:41;19.07;;;11.90;;
51034;SDS011;37062;52.546;13.230;2023-01-19T04:31:09;19.60;;;11.87;;
51034;SDS011;37062;52.546;13.230;2023-01-19T04:33:38;18.07;;;11.77;;
51034;SDS011;37062;52.546;13.230;2023-01-19T04:36:06;19.17;;;11.93;;
51034;SDS011;37062;52.546;13.230;2023-01-19T04:38:35;19.97;;;12.13;;
51034;SDS011;37062;52.546;13.230;2023-01-19T04:41:03;23.17;;;12.83;;
51034;SDS011;37062;52.546;13.230;2023-01-19T04:43:32;21.20;;;12.70;;
51034;SDS011;37062;52.546;13.230;2023-01-19T04:46:01;21.70;;;13.07;;
51034;SDS011;37062;52.546;13.230;2023-01-19T04:48:30;22.63;;;13.23;;
51034;SDS011;37062;52.546;13.230;2023-01-19T04:50:58;19.27;;;11.97;;
51034;SDS011;37062;52.546;13.230;2023-01-19T04:53:26;19.43;;;12.30;;
51034;SDS011;37062;52.546;13.230;2023-01-19T04:55:54;25.50;;;12.50;;
51034;SDS011;37062;52.546;13.230;2023-01-19T04:58:24;21.50;;;13.17;;
51034;SDS011;37062;52.546;13.230;2023-01-19T05:00:52;22.07;;;11.87;;
51034;SDS011;37062;52.546;13.230;2023-01-19T05:03:22;23.73;;;13.83;;
51034;SDS011;37062;52.546;13.230;2023-01-19T05:05:51;21.57;;;12.77;;
51034;SDS011;37062;52.546;13.230;2023-01-19T05:08:20;19.63;;;11.93;;
51034;SDS011;37062;52.546;13.230;2023-01-19T05:10:48;21.80;;;12.53;;
51034;SDS011;37062;52.546;13.230;2023-01-19T05:13:16;20.33;;;11.30;;
51034;SDS011;37062;52.546;13.230;2023-01-19T05:15:45;21.03;;;12.10;;
51034;SDS011;37062;52.546;13.230;2023-01-19T05:18:13;20.03;;;12.37;;
51034;SDS011;37062;52.546;13.230;2023-01-19T05:20:42;23.57;;;12.27;;
51034;SDS011;37062;52.546;13.230;2023-01-19T05:23:11;17.83;;;11.87;;
51034;SDS011;37062;52.546;13.230;2023-01-19T05:25:39;18.10;;;11.20;;
51034;SDS011;37062;52.546;13.230;2023-01-19T05:28:08;19.03;;;12.20;;
51034;SDS011;37062;52.546;13.230;2023-01-19T05:30:37;18.90;;;12.23;;
51034;SDS011;37062;52.546;13.230;2023-01-19T05:33:05;22.87;;;12.03;;
51034;SDS011;37062;52.546;13.230;2023-01-19T05:35:33;19.50;;;12.50;;
51034;SDS011;37062;52.546;13.230;2023-01-19T05:38:03;20.77;;;12.20;;
51034;SDS011;37062;52.546;13.230;2023-01-19T05:40:31;16.90;;;11.17;;
51034;SDS011;37062;52.546;13.230;2023-01-19T05:43:00;16.90;;;11.73;;
51034;SDS011;37062;52.546;13.230;2023-01-19T05:45:31;18.47;;;11.93;;
51034;SDS011;37062;52.546;13.230;2023-01-19T05:47:59;20.13;;;12.13;;
51034;SDS011;37062;52.546;13.230;2023-01-19T05:50:27;23.03;;;12.97;;
51034;SDS011;37062;52.546;13.230;2023-01-19T05:52:56;22.53;;;12.33;;
51034;SDS011;37062;52.546;13.230;2023-01-19T05:55:27;20.90;;;11.40;;
51034;SDS011;37062;52.546;13.230;2023-01-19T05:57:55;17.33;;;11.17;;
51034;SDS011;37062;52.546;13.230;2023-01-19T06:00:23;20.40;;;12.00;;
51034;SDS011;37062;52.546;13.230;2023-01-19T06:02:53;21.23;;;12.20;;
51034;SDS011;37062;52.546;13.230;2023-01-19T06:05:21;17.30;;;11.40;;
51034;SDS011;37062;52.546;13.230;2023-01-19T06:07:49;20.50;;;12.33;;
51034;SDS011;37062;52.546;13.230;2023-01-19T06:10:17;22.40;;;11.80;;
51034;SDS011;37062;52.546;13.230;2023-01-19T06:12:47;16.47;;;10.50;;
51034;SDS011;37062;52.546;13.230;2023-01-19T06:15:18;19.90;;;12.13;;
51034;SDS011;37062;52.546;13.230;2023-01-19T06:17:46;17.50;;;11.40;;
51034;SDS011;37062;52.546;13.230;2023-01-19T06:20:15;19.47;;;12.17;;
51034;SDS011;37062;52.546;13.230;2023-01-19T06:22:43;18.50;;;12.20;;
51034;SDS011;37062;52.546;13.230;2023-01-19T06:25:13;18.03;;;11.00;;
51034;SDS011;37062;52.546;13.230;2023-01-19T06:27:44;19.70;;;12.63;;
51034;SDS011;37062;52.546;13.230;2023-01-19T06:30:14;18.23;;;11.57;;
51034;SDS011;37062;52.546;13.230;2023-01-19T06:32:42;16.37;;;11.13;;
51034;SDS011;37062;52.546;13.230;2023-01-19T06:35:10;21.17;;;12.30;;
51034;SDS011;37062;52.546;13.230;2023-01-19T06:37:39;20.27;;;11.90;;
51034;SDS011;37062;52.546;13.230;2023-01-19T06:40:07;17.20;;;11.70;;
51034;SDS011;37062;52.546;13.230;2023-01-19T06:42:39;19.27;;;11.07;;
51034;SDS011;37062;52.546;13.230;2023-01-19T06:45:08;21.27;;;12.33;;
51034;SDS011;37062;52.546;13.230;2023-01-19T06:47:38;18.03;;;10.77;;
51034;SDS011;37062;52.546;13.230;2023-01-19T06:50:07;17.90;;;11.23;;
51034;SDS011;37062;52.546;13.230;2023-01-19T06:52:36;18.93;;;11.57;;
51034;SDS011;37062;52.546;13.230;2023-01-19T06:55:08;17.53;;;11.70;;
51034;SDS011;37062;52.546;13.230;2023-01-19T06:57:37;17.73;;;11.10;;
51034;SDS011;37062;52.546;13.230;2023-01-19T07:00:05;20.27;;;11.43;;
51034;SDS011;37062;52.546;13.230;2023-01-19T07:02:35;15.47;;;10.63;;
51034;SDS011;37062;52.546;13.230;2023-01-19T07:05:06;19.40;;;11.53;;
51034;SDS011;37062;52.546;13.230;2023-01-19T07:07:34;19.87;;;11.53;;
51034;SDS011;37062;52.546;13.230;2023-01-19T07:10:05;20.10;;;11.63;;
51034;SDS011;37062;52.546;13.230;2023-01-19T07:12:34;20.13;;;10.87;;
51034;SDS011;37062;52.546;13.230;2023-01-19T07:15:02;15.33;;;10.23;;
51034;SDS011;37062;52.546;13.230;2023-01-19T07:17:31;16.80;;;11.20;;
51034;SDS011;37062;52.546;13.230;2023-01-19T07:20:00;15.73;;;10.33;;
51034;SDS011;37062;52.546;13.230;2023-01-19T07:22:29;19.37;;;10.23;;
51034;SDS011;37062;52.546;13.230;2023-01-19T07:24:57;17.77;;;10.70;;
51034;SDS011;37062;52.546;13.230;2023-01-19T07:27:27;18.40;;;11.40;;
51034;SDS011;37062;52.546;13.230;2023-01-19T07:29:55;15.73;;;10.47;;
51034;SDS011;37062;52.546;13.230;2023-01-19T07:32:23;15.50;;;10.33;;
51034;SDS011;37062;52.546;13.230;2023-01-19T07:34:51;21.50;;;10.77;;
51034;SDS011;37062;52.546;13.230;2023-01-19T07:37:19;18.37;;;11.57;;
51034;SDS011;37062;52.546;13.230;2023-01-19T07:39:49;14.27;;;10.07;;
51034;SDS011;37062;52.546;13.230;2023-01-19T07:42:17;15.60;;;10.80;;
51034;SDS011;37062;52.546;13.230;2023-01-19T07:44:46;16.20;;;10.00;;
51034;SDS011;37062;52.546;13.230;2023-01-19T07:47:14;16.43;;;10.33;;
51034;SDS011;37062;52.546;13.230;2023-01-19T07:49:42;17.47;;;10.70;;
51034;SDS011;37062;52.546;13.230;2023-01-19T07:52:10;14.93;;;10.23;;
51034;SDS011;37062;52.546;13.230;2023-01-19T07:54:38;17.23;;;10.43;;
51034;SDS011;37062;52.546;13.230;2023-01-19T07:57:08;16.63;;;10.03;;
51034;SDS011;37062;52.546;13.230;2023-01-19T07:59:36;17.40;;;10.07;;
51034;SDS011;37062;52.546;13.230;2023-01-19T08:02:05;15.43;;;10.47;;
51034;SDS011;37062;52.546;13.230;2023-01-19T08:04:33;16.53;;;9.50;;
51034;SDS011;37062;52.546;13.230;2023-01-19T08:07:01;17.90;;;9.70;;
51034;SDS011;37062;52.546;13.230;2023-01-19T08:09:30;18.97;;;10.30;;
51034;SDS011;37062;52.546;13.230;2023-01-19T08:11:58;17.60;;;10.57;;
51034;SDS011;37062;52.546;13.230;2023-01-19T08:14:27;18.10;;;9.80;;
51034;SDS011;37062;52.546;13.230;2023-01-19T08:16:57;17.97;;;10.33;;
51034;SDS011;37062;52.546;13.230;2023-01-19T08:19:26;20.30;;;10.03;;
51034;SDS011;37062;52.546;13.230;2023-01-19T08:21:54;16.80;;;10.27;;
51034;SDS011;37062;52.546;13.230;2023-01-19T08:24:24;19.37;;;10.47;;
51034;SDS011;37062;52.546;13.230;2023-01-19T08:26:57;18.07;;;10.07;;
51034;SDS011;37062;52.546;13.230;2023-01-19T08:29:26;23.10;;;13.60;;
51034;SDS011;37062;52.546;13.230;2023-01-19T08:31:58;20.17;;;12.07;;
51034;SDS011;37062;52.546;13.230;2023-01-19T08:34:28;17.67;;;9.77;;
51034;SDS011;37062;52.546;13.230;2023-01-19T08:36:57;13.93;;;7.90;;
51034;SDS011;37062;52.546;13.230;2023-01-19T08:39:25;12.47;;;8.47;;
51034;SDS011;37062;52.546;13.230;2023-01-19T08:41:53;15.63;;;9.23;;
51034;SDS011;37062;52.546;13.230;2023-01-19T08:44:23;15.17;;;8.83;;
51034;SDS011;37062;52.546;13.230;2023-01-19T08:46:53;15.17;;;8.80;;
51034;SDS011;37062;52.546;13.230;2023-01-19T08:49:21;12.57;;;7.60;;
51034;SDS011;37062;52.546;13.230;2023-01-19T08:51:49;12.10;;;7.83;;
51034;SDS011;37062;52.546;13.230;2023-01-19T08:54:17;11.90;;;7.70;;
51034;SDS011;37062;52.546;13.230;2023-01-19T08:56:47;14.47;;;7.87;;
51034;SDS011;37062;52.546;13.230;2023-01-19T08:59:15;12.17;;;7.37;;
51034;SDS011;37062;52.546;13.230;2023-01-19T09:01:43;12.33;;;7.17;;
51034;SDS011;37062;52.546;13.230;2023-01-19T09:04:13;13.53;;;8.27;;
51034;SDS011;37062;52.546;13.230;2023-01-19T09:06:41;16.10;;;7.73;;
51034;SDS011;37062;52.546;13.230;2023-01-19T09:09:09;12.30;;;7.30;;
51034;SDS011;37062;52.546;13.230;2023-01-19T09:11:37;10.83;;;6.97;;
51034;SDS011;37062;52.546;13.230;2023-01-19T09:14:05;11.67;;;7.10;;
51034;SDS011;37062;52.546;13.230;2023-01-19T09:16:33;13.03;;;7.27;;
51034;SDS011;37062;52.546;13.230;2023-01-19T09:19:02;12.30;;;7.33;;
51034;SDS011;37062;52.546;13.230;2023-01-19T09:21:31;15.87;;;7.03;;
51034;SDS011;37062;52.546;13.230;2023-01-19T09:23:59;11.90;;;7.30;;
51034;SDS011;37062;52.546;13.230;2023-01-19T09:26:28;11.13;;;7.17;;
51034;SDS011;37062;52.546;13.230;2023-01-19T09:28:58;10.03;;;6.57;;
51034;SDS011;37062;52.546;13.230;2023-01-19T09:31:26;23.13;;;8.30;;
51034;SDS011;37062;52.546;13.230;2023-01-19T09:33:55;15.67;;;7.60;;
51034;SDS011;37062;52.546;13.230;2023-01-19T09:36:23;19.87;;;7.23;;
51034;SDS011;37062;52.546;13.230;2023-01-19T09:38:52;10.93;;;6.33;;
51034;SDS011;37062;52.546;13.230;2023-01-19T09:41:20;11.80;;;6.23;;
51034;SDS011;37062;52.546;13.230;2023-01-19T09:43:52;8.00;;;6.50;;
51034;SDS011;37062;52.546;13.230;2023-01-19T09:46:24;11.13;;;6.70;;
51034;SDS011;37062;52.546;13.230;2023-01-19T09:49:00;10.93;;;7.07;;
51034;SDS011;37062;52.546;13.230;2023-01-19T09:51:32;10.70;;;6.10;;
51034;SDS011;37062;52.546;13.230;2023-01-19T09:54:07;9.70;;;5.77;;
51034;SDS011;37062;52.546;13.230;2023-01-19T09:56:40;9.03;;;6.10;;
51034;SDS011;37062;52.546;13.230;2023-01-19T09:59:13;10.93;;;6.53;;
51034;SDS011;37062;52.546;13.230;2023-01-19T10:01:48;11.13;;;5.90;;
51034;SDS011;37062;52.546;13.230;2023-01-19T10:04:43;9.97;;;6.40;;
51034;SDS011;37062;52.546;13.230;2023-01-19T10:07:25;25.07;;;7.97;;
51034;SDS011;37062;52.546;13.230;2023-01-19T10:10:04;17.53;;;7.10;;
51034;SDS011;37062;52.546;13.230;2023-01-19T10:12:45;12.10;;;8.50;;
51034;SDS011;37062;52.546;13.230;2023-01-19T10:15:25;11.97;;;6.97;;
51034;SDS011;37062;52.546;13.230;2023-01-19T10:18:05;10.40;;;6.63;;
51034;SDS011;37062;52.546;13.230;2023-01-19T10:20:43;11.93;;;6.40;;
51034;SDS011;37062;52.546;13.230;2023-01-19T10:23:20;10.93;;;6.77;;
51034;SDS011;37062;52.546;13.230;2023-01-19T10:26:00;12.10;;;7.17;;
51034;SDS011;37062;52.546;13.230;2023-01-19T10:28:33;9.37;;;6.87;;
51034;SDS011;37062;52.546;13.230;2023-01-19T10:31:05;12.13;;;7.47;;
51034;SDS011;37062;52.546;13.230;2023-01-19T10:33:35;10.60;;;6.67;;
51034;SDS011;37062;52.546;13.230;2023-01-19T10:36:05;15.67;;;8.63;;
51034;SDS011;37062;52.546;13.230;2023-01-19T10:38:42;13.20;;;6.53;;
51034;SDS011;37062;52.546;13.230;2023-01-19T10:41:13;9.37;;;6.60;;
51034;SDS011;37062;52.546;13.230;2023-01-19T10:43:45;12.03;;;6.63;;
51034;SDS011;37062;52.546;13.230;2023-01-19T10:46:20;9.90;;;5.97;;
51034;SDS011;37062;52.546;13.230;2023-01-19T10:48:52;10.50;;;7.07;;
51034;SDS011;37062;52.546;13.230;2023-01-19T10:51:21;10.13;;;6.53;;
51034;SDS011;37062;52.546;13.230;2023-01-19T10:53:54;7.73;;;5.60;;
51034;SDS011;37062;52.546;13.230;2023-01-19T10:56:26;9.73;;;6.13;;
51034;SDS011;37062;52.546;13.230;2023-01-19T10:58:58;8.83;;;6.10;;
51034;SDS011;37062;52.546;13.230;2023-01-19T11:01:27;11.03;;;6.47;;
51034;SDS011;37062;52.546;13.230;2023-01-19T11:03:56;10.30;;;6.30;;
51034;SDS011;37062;52.546;13.230;2023-01-19T11:06:31;8.13;;;6.43;;
51034;SDS011;37062;52.546;13.230;2023-01-19T11:09:11;13.87;;;6.97;;
51034;SDS011;37062;52.546;13.230;2023-01-19T11:11:45;11.70;;;6.40;;
51034;SDS011;37062;52.546;13.230;2023-01-19T11:14:17;10.80;;;6.63;;
51034;SDS011;37062;52.546;13.230;2023-01-19T11:16:47;8.67;;;6.27;;
51034;SDS011;37062;52.546;13.230;2023-01-19T11:19:18;9.10;;;6.40;;
51034;SDS011;37062;52.546;13.230;2023-01-19T11:21:51;10.77;;;6.60;;
51034;SDS011;37062;52.546;13.230;2023-01-19T11:24:19;9.20;;;6.33;;
51034;SDS011;37062;52.546;13.230;2023-01-19T11:26:54;8.30;;;6.20;;
51034;SDS011;37062;52.546;13.230;2023-01-19T11:29:28;11.37;;;7.03;;
51034;SDS011;37062;52.546;13.230;2023-01-19T11:32:08;12.10;;;6.43;;
51034;SDS011;37062;52.546;13.230;2023-01-19T11:34:38;7.73;;;5.33;;
51034;SDS011;37062;52.546;13.230;2023-01-19T11:37:24;10.90;;;6.67;;
51034;SDS011;37062;52.546;13.230;2023-01-19T11:40:00;9.87;;;5.77;;
51034;SDS011;37062;52.546;13.230;2023-01-19T11:42:33;9.60;;;6.47;;
51034;SDS011;37062;52.546;13.230;2023-01-19T11:45:03;9.40;;;5.90;;
51034;SDS011;37062;52.546;13.230;2023-01-19T11:47:38;9.17;;;6.03;;
51034;SDS011;37062;52.546;13.230;2023-01-19T11:50:13;9.43;;;6.37;;
51034;SDS011;37062;52.546;13.230;2023-01-19T11:52:50;9.20;;;6.53;;
51034;SDS011;37062;52.546;13.230;2023-01-19T11:55:23;11.17;;;6.90;;
51034;SDS011;37062;52.546;13.230;2023-01-19T11:58:00;11.07;;;6.87;;
51034;SDS011;37062;52.546;13.230;2023-01-19T12:00:31;8.33;;;6.50;;
51034;SDS011;37062;52.546;13.230;2023-01-19T12:03:05;11.77;;;6.33;;
51034;SDS011;37062;52.546;13.230;2023-01-19T12:05:39;9.93;;;7.27;;
51034;SDS011;37062;52.546;13.230;2023-01-19T12:08:14;9.67;;;6.13;;
51034;SDS011;37062;52.546;13.230;2023-01-19T12:10:45;10.73;;;7.00;;
51034;SDS011;37062;52.546;13.230;2023-01-19T12:13:21;17.60;;;8.07;;
51034;SDS011;37062;52.546;13.230;2023-01-19T12:15:51;10.10;;;7.07;;
51034;SDS011;37062;52.546;13.230;2023-01-19T12:18:23;9.03;;;6.00;;
51034;SDS011;37062;52.546;13.230;2023-01-19T12:20:55;7.83;;;5.80;;
51034;SDS011;37062;52.546;13.230;2023-01-19T12:23:28;10.27;;;6.50;;
51034;SDS011;37062;52.546;13.230;2023-01-19T12:29:02;10.77;;;7.07;;
51034;SDS011;37062;52.546;13.230;2023-01-19T12:31:37;11.73;;;6.20;;
51034;SDS011;37062;52.546;13.230;2023-01-19T12:36:59;10.40;;;6.77;;
51034;SDS011;37062;52.546;13.230;2023-01-19T12:39:29;8.87;;;6.10;;
51034;SDS011;37062;52.546;13.230;2023-01-19T12:42:06;10.50;;;5.87;;
51034;SDS011;37062;52.546;13.230;2023-01-19T12:44:41;10.47;;;6.57;;
51034;SDS011;37062;52.546;13.230;2023-01-19T12:47:18;12.93;;;6.40;;
51034;SDS011;37062;52.546;13.230;2023-01-19T12:49:50;9.27;;;5.60;;
51034;SDS011;37062;52.546;13.230;2023-01-19T12:52:21;9.53;;;5.77;;
51034;SDS011;37062;52.546;13.230;2023-01-19T12:54:57;7.50;;;5.63;;
51034;SDS011;37062;52.546;13.230;2023-01-19T12:57:33;8.67;;;6.43;;
51034;SDS011;37062;52.546;13.230;2023-01-19T13:00:06;10.90;;;5.90;;
51034;SDS011;37062;52.546;13.230;2023-01-19T13:02:54;9.70;;;5.63;;
51034;SDS011;37062;52.546;13.230;2023-01-19T13:05:24;11.27;;;6.10;;
51034;SDS011;37062;52.546;13.230;2023-01-19T13:08:21;9.73;;;6.17;;
51034;SDS011;37062;52.546;13.230;2023-01-19T13:16:57;10.27;;;6.27;;
51034;SDS011;37062;52.546;13.230;2023-01-19T13:19:34;8.67;;;6.30;;
51034;SDS011;37062;52.546;13.230;2023-01-19T13:25:24;10.90;;;6.27;;
51034;SDS011;37062;52.546;13.230;2023-01-19T13:27:56;10.00;;;6.40;;
51034;SDS011;37062;52.546;13.230;2023-01-19T13:30:25;8.20;;;5.63;;
51034;SDS011;37062;52.546;13.230;2023-01-19T13:32:55;8.70;;;6.17;;
51034;SDS011;37062;52.546;13.230;2023-01-19T13:35:32;9.73;;;6.30;;
51034;SDS011;37062;52.546;13.230;2023-01-19T13:38:02;8.90;;;6.60;;
51034;SDS011;37062;52.546;13.230;2023-01-19T13:40:32;10.83;;;7.20;;
51034;SDS011;37062;52.546;13.230;2023-01-19T13:43:06;12.07;;;7.40;;
51034;SDS011;37062;52.546;13.230;2023-01-19T13:45:45;10.27;;;6.60;;
51034;SDS011;37062;52.546;13.230;2023-01-19T13:48:20;10.03;;;6.60;;
51034;SDS011;37062;52.546;13.230;2023-01-19T13:51:00;9.87;;;6.57;;
51034;SDS011;37062;52.546;13.230;2023-01-19T13:53:30;12.80;;;6.97;;
51034;SDS011;37062;52.546;13.230;2023-01-19T13:56:18;13.00;;;7.30;;
51034;SDS011;37062;52.546;13.230;2023-01-19T13:59:05;10.73;;;6.80;;
51034;SDS011;37062;52.546;13.230;2023-01-19T14:01:38;15.70;;;7.40;;
51034;SDS011;37062;52.546;13.230;2023-01-19T14:04:24;9.90;;;5.90;;
51034;SDS011;37062;52.546;13.230;2023-01-19T14:06:52;9.13;;;6.30;;
51034;SDS011;37062;52.546;13.230;2023-01-19T14:09:24;9.50;;;6.33;;
51034;SDS011;37062;52.546;13.230;2023-01-19T14:12:12;10.73;;;7.10;;
51034;SDS011;37062;52.546;13.230;2023-01-19T14:14:41;14.83;;;6.43;;
51034;SDS011;37062;52.546;13.230;2023-01-19T14:17:22;12.50;;;6.77;;
51034;SDS011;37062;52.546;13.230;2023-01-19T14:19:52;8.77;;;7.07;;
51034;SDS011;37062;52.546;13.230;2023-01-19T14:22:35;10.23;;;6.70;;
51034;SDS011;37062;52.546;13.230;2023-01-19T14:25:26;10.70;;;7.00;;
51034;SDS011;37062;52.546;13.230;2023-01-19T14:30:55;13.47;;;7.17;;
51034;SDS011;37062;52.546;13.230;2023-01-19T14:33:31;13.97;;;7.00;;
51034;SDS011;37062;52.546;13.230;2023-01-19T14:36:07;9.40;;;6.30;;
51034;SDS011;37062;52.546;13.230;2023-01-19T14:38:36;12.60;;;7.10;;
51034;SDS011;37062;52.546;13.230;2023-01-19T14:41:10;10.00;;;6.93;;
51034;SDS011;37062;52.546;13.230;2023-01-19T14:43:41;10.03;;;7.43;;
51034;SDS011;37062;52.546;13.230;2023-01-19T14:46:13;11.50;;;6.90;;
51034;SDS011;37062;52.546;13.230;2023-01-19T14:48:44;10.77;;;7.00;;
51034;SDS011;37062;52.546;13.230;2023-01-19T14:51:14;9.23;;;6.63;;
51034;SDS011;37062;52.546;13.230;2023-01-19T14:53:45;14.03;;;7.47;;
51034;SDS011;37062;52.546;13.230;2023-01-19T14:56:24;11.37;;;7.40;;
51034;SDS011;37062;52.546;13.230;2023-01-19T14:58:54;12.00;;;7.23;;
51034;SDS011;37062;52.546;13.230;2023-01-19T15:01:23;11.10;;;7.63;;